Ponchatoula, Louisiana
Current Conditions -  °F | °C
As of 3:55 AM on Sunday 23 Nov 2014 (Local Time) from KHDC Reporting Station
Overcast Overcast  
Wind Chill: 64°   Ceiling: 700
Heat Index: 64°   Visibility: 10mi
Dew Point: 61°   Wind: 6mph
Humidity: 88%   Direction: 100°E
Pressure: 29.79"   Gusts: NA
Location:  30.44°N, 90.44°W
Report Text: KHDC 230955Z AUTO 10005KT 10SM OVC007 18/16 A2979 RMK AO2
Loading
Personal Weather Stations






























Interactive Weather Map New forecast layout! Learn more

10-Day Weather Forecast

Advertisements
Track Severe Weather on mobile